sensor_id;sensor_type;location;lat;lon;timestamp;temperature;humidity
32400;DHT22;45045;45.440;9.178;2022-11-20T00:01:12;11.60;99.90
32400;DHT22;45045;45.440;9.178;2022-11-20T00:03:38;11.60;99.90
32400;DHT22;45045;45.440;9.178;2022-11-20T00:06:07;11.60;99.90
32400;DHT22;45045;45.440;9.178;2022-11-20T00:08:33;11.60;99.90
32400;DHT22;45045;45.440;9.178;2022-11-20T00:11:06;11.60;99.90
32400;DHT22;45045;45.440;9.178;2022-11-20T00:13:33;11.50;99.90
32400;DHT22;45045;45.440;9.178;2022-11-20T00:16:00;11.50;99.90
32400;DHT22;45045;45.440;9.178;2022-11-20T00:18:26;11.50;99.90
32400;DHT22;45045;45.440;9.178;2022-11-20T00:20:52;11.30;99.90
32400;DHT22;45045;45.440;9.178;2022-11-20T00:23:19;11.30;99.90
32400;DHT22;45045;45.440;9.178;2022-11-20T00:25:44;11.20;99.90
32400;DHT22;45045;45.440;9.178;2022-11-20T00:28:10;11.10;99.90
32400;DHT22;45045;45.440;9.178;2022-11-20T00:30:36;11.00;99.90
32400;DHT22;45045;45.440;9.178;2022-11-20T00:33:01;11.10;99.90
32400;DHT22;45045;45.440;9.178;2022-11-20T00:35:27;11.00;99.90
32400;DHT22;45045;45.440;9.178;2022-11-20T00:37:52;11.00;99.90
32400;DHT22;45045;45.440;9.178;2022-11-20T00:40:18;10.90;99.90
32400;DHT22;45045;45.440;9.178;2022-11-20T00:42:44;10.80;99.90
32400;DHT22;45045;45.440;9.178;2022-11-20T00:45:09;10.80;99.90
32400;DHT22;45045;45.440;9.178;2022-11-20T00:47:35;10.80;99.90
32400;DHT22;45045;45.440;9.178;2022-11-20T00:50:01;10.80;99.90
32400;DHT22;45045;45.440;9.178;2022-11-20T00:52:26;10.90;99.90
32400;DHT22;45045;45.440;9.178;2022-11-20T00:54:52;10.90;99.90
32400;DHT22;45045;45.440;9.178;2022-11-20T00:57:17;10.90;99.90
32400;DHT22;45045;45.440;9.178;2022-11-20T00:59:43;10.80;99.90
32400;DHT22;45045;45.440;9.178;2022-11-20T01:02:09;10.70;99.90
32400;DHT22;45045;45.440;9.178;2022-11-20T01:04:34;10.60;99.90
32400;DHT22;45045;45.440;9.178;2022-11-20T01:07:00;10.60;99.90
32400;DHT22;45045;45.440;9.178;2022-11-20T01:09:25;10.60;99.90
32400;DHT22;45045;45.440;9.178;2022-11-20T01:11:51;10.60;99.90
32400;DHT22;45045;45.440;9.178;2022-11-20T01:14:18;10.60;99.90
32400;DHT22;45045;45.440;9.178;2022-11-20T01:16:47;10.60;99.90
32400;DHT22;45045;45.440;9.178;2022-11-20T01:19:20;10.60;99.90
32400;DHT22;45045;45.440;9.178;2022-11-20T01:21:49;10.60;99.90
32400;DHT22;45045;45.440;9.178;2022-11-20T01:24:17;10.60;99.90
32400;DHT22;45045;45.440;9.178;2022-11-20T01:26:45;10.50;99.90
32400;DHT22;45045;45.440;9.178;2022-11-20T01:29:23;10.60;99.90
32400;DHT22;45045;45.440;9.178;2022-11-20T01:31:49;10.50;99.90
32400;DHT22;45045;45.440;9.178;2022-11-20T01:34:17;10.40;99.90
32400;DHT22;45045;45.440;9.178;2022-11-20T01:36:44;10.40;99.90
32400;DHT22;45045;45.440;9.178;2022-11-20T01:39:16;10.40;99.90
32400;DHT22;45045;45.440;9.178;2022-11-20T01:41:43;10.40;99.90
32400;DHT22;45045;45.440;9.178;2022-11-20T01:47:43;10.20;99.90
32400;DHT22;45045;45.440;9.178;2022-11-20T01:52:45;10.20;99.90
32400;DHT22;45045;45.440;9.178;2022-11-20T01:55:16;10.20;99.90
32400;DHT22;45045;45.440;9.178;2022-11-20T01:57:42;10.30;99.90
32400;DHT22;45045;45.440;9.178;2022-11-20T02:00:12;10.20;99.90
32400;DHT22;45045;45.440;9.178;2022-11-20T02:02:41;10.10;99.90
32400;DHT22;45045;45.440;9.178;2022-11-20T02:05:38;10.00;99.90
32400;DHT22;45045;45.440;9.178;2022-11-20T02:08:06;9.90;99.90
32400;DHT22;45045;45.440;9.178;2022-11-20T02:10:32;9.90;99.90
32400;DHT22;45045;45.440;9.178;2022-11-20T02:12:59;9.90;99.90
32400;DHT22;45045;45.440;9.178;2022-11-20T02:15:43;9.90;99.90
32400;DHT22;45045;45.440;9.178;2022-11-20T02:18:10;9.90;99.90
32400;DHT22;45045;45.440;9.178;2022-11-20T02:20:38;9.90;99.90
32400;DHT22;45045;45.440;9.178;2022-11-20T02:23:05;9.90;99.90
32400;DHT22;45045;45.440;9.178;2022-11-20T02:25:33;9.90;99.90
32400;DHT22;45045;45.440;9.178;2022-11-20T02:28:00;9.90;99.90
32400;DHT22;45045;45.440;9.178;2022-11-20T02:30:26;9.80;99.90
32400;DHT22;45045;45.440;9.178;2022-11-20T02:32:52;9.80;99.90
32400;DHT22;45045;45.440;9.178;2022-11-20T02:37:48;9.70;99.90
32400;DHT22;45045;45.440;9.178;2022-11-20T02:40:15;9.70;99.90
32400;DHT22;45045;45.440;9.178;2022-11-20T02:42:40;9.70;99.90
32400;DHT22;45045;45.440;9.178;2022-11-20T02:45:07;9.60;99.90
32400;DHT22;45045;45.440;9.178;2022-11-20T02:47:33;9.50;99.90
32400;DHT22;45045;45.440;9.178;2022-11-20T02:49:58;9.40;99.90
32400;DHT22;45045;45.440;9.178;2022-11-20T02:52:25;9.40;99.90
32400;DHT22;45045;45.440;9.178;2022-11-20T02:54:50;9.30;99.90
32400;DHT22;45045;45.440;9.178;2022-11-20T02:57:16;9.40;99.90
32400;DHT22;45045;45.440;9.178;2022-11-20T02:59:42;9.30;99.90
32400;DHT22;45045;45.440;9.178;2022-11-20T03:02:07;9.40;99.90
32400;DHT22;45045;45.440;9.178;2022-11-20T03:04:33;9.40;99.90
32400;DHT22;45045;45.440;9.178;2022-11-20T03:06:59;9.40;99.90
32400;DHT22;45045;45.440;9.178;2022-11-20T03:09:24;9.40;99.90
32400;DHT22;45045;45.440;9.178;2022-11-20T03:11:50;9.30;99.90
32400;DHT22;45045;45.440;9.178;2022-11-20T03:14:16;9.40;99.90
32400;DHT22;45045;45.440;9.178;2022-11-20T03:16:41;9.30;99.90
32400;DHT22;45045;45.440;9.178;2022-11-20T03:19:07;9.20;99.90
32400;DHT22;45045;45.440;9.178;2022-11-20T03:21:33;9.20;99.90
32400;DHT22;45045;45.440;9.178;2022-11-20T03:23:59;9.30;99.90
32400;DHT22;45045;45.440;9.178;2022-11-20T03:26:25;9.30;99.90
32400;DHT22;45045;45.440;9.178;2022-11-20T03:28:56;9.30;99.90
32400;DHT22;45045;45.440;9.178;2022-11-20T03:31:24;9.20;99.90
32400;DHT22;45045;45.440;9.178;2022-11-20T03:33:50;9.10;99.90
32400;DHT22;45045;45.440;9.178;2022-11-20T03:36:17;9.20;99.90
32400;DHT22;45045;45.440;9.178;2022-11-20T03:38:43;9.20;99.90
32400;DHT22;45045;45.440;9.178;2022-11-20T03:41:20;9.20;99.90
32400;DHT22;45045;45.440;9.178;2022-11-20T03:43:49;9.20;99.90
32400;DHT22;45045;45.440;9.178;2022-11-20T03:46:16;9.10;99.90
32400;DHT22;45045;45.440;9.178;2022-11-20T03:48:41;9.10;99.90
32400;DHT22;45045;45.440;9.178;2022-11-20T03:51:15;9.10;99.90
32400;DHT22;45045;45.440;9.178;2022-11-20T03:53:42;9.00;99.90
32400;DHT22;45045;45.440;9.178;2022-11-20T03:56:09;9.00;99.90
32400;DHT22;45045;45.440;9.178;2022-11-20T03:58:36;9.00;99.90
32400;DHT22;45045;45.440;9.178;2022-11-20T04:01:09;8.90;99.90
32400;DHT22;45045;45.440;9.178;2022-11-20T04:03:36;8.90;99.90
32400;DHT22;45045;45.440;9.178;2022-11-20T04:06:04;8.90;99.90
32400;DHT22;45045;45.440;9.178;2022-11-20T04:08:30;8.80;99.90
32400;DHT22;45045;45.440;9.178;2022-11-20T04:10:56;8.90;99.90
32400;DHT22;45045;45.440;9.178;2022-11-20T04:13:32;8.80;99.90
32400;DHT22;45045;45.440;9.178;2022-11-20T04:15:58;8.80;99.90
32400;DHT22;45045;45.440;9.178;2022-11-20T04:18:23;8.90;99.90
32400;DHT22;45045;45.440;9.178;2022-11-20T04:20:49;8.90;99.90
32400;DHT22;45045;45.440;9.178;2022-11-20T04:23:15;8.90;99.90
32400;DHT22;45045;45.440;9.178;2022-11-20T04:25:40;8.80;99.90
32400;DHT22;45045;45.440;9.178;2022-11-20T04:28:06;8.80;99.90
32400;DHT22;45045;45.440;9.178;2022-11-20T04:30:31;8.80;99.90
32400;DHT22;45045;45.440;9.178;2022-11-20T04:32:57;8.90;99.90
32400;DHT22;45045;45.440;9.178;2022-11-20T04:35:23;8.90;99.90
32400;DHT22;45045;45.440;9.178;2022-11-20T04:37:51;8.90;99.90
32400;DHT22;45045;45.440;9.178;2022-11-20T04:40:17;8.80;99.90
32400;DHT22;45045;45.440;9.178;2022-11-20T04:42:42;8.90;99.90
32400;DHT22;45045;45.440;9.178;2022-11-20T04:45:08;8.90;99.90
32400;DHT22;45045;45.440;9.178;2022-11-20T04:47:34;8.90;99.90
32400;DHT22;45045;45.440;9.178;2022-11-20T04:49:59;8.80;99.90
32400;DHT22;45045;45.440;9.178;2022-11-20T04:52:25;8.80;99.90
32400;DHT22;45045;45.440;9.178;2022-11-20T04:54:50;8.80;99.90
32400;DHT22;45045;45.440;9.178;2022-11-20T04:57:18;8.80;99.90
32400;DHT22;45045;45.440;9.178;2022-11-20T04:59:44;8.80;99.90
32400;DHT22;45045;45.440;9.178;2022-11-20T05:02:10;8.90;99.90
32400;DHT22;45045;45.440;9.178;2022-11-20T05:04:36;8.90;99.90
32400;DHT22;45045;45.440;9.178;2022-11-20T05:07:01;8.90;99.90
32400;DHT22;45045;45.440;9.178;2022-11-20T05:09:27;8.90;99.90
32400;DHT22;45045;45.440;9.178;2022-11-20T05:11:53;8.90;99.90
32400;DHT22;45045;45.440;9.178;2022-11-20T05:14:18;8.90;99.90
32400;DHT22;45045;45.440;9.178;2022-11-20T05:16:44;8.90;99.90
32400;DHT22;45045;45.440;9.178;2022-11-20T05:19:09;8.80;99.90
32400;DHT22;45045;45.440;9.178;2022-11-20T05:21:35;8.80;99.90
32400;DHT22;45045;45.440;9.178;2022-11-20T05:24:01;8.90;99.90
32400;DHT22;45045;45.440;9.178;2022-11-20T05:26:26;8.80;99.90
32400;DHT22;45045;45.440;9.178;2022-11-20T05:28:52;8.80;99.90
32400;DHT22;45045;45.440;9.178;2022-11-20T05:31:20;8.80;99.90
32400;DHT22;45045;45.440;9.178;2022-11-20T05:33:46;8.80;99.90
32400;DHT22;45045;45.440;9.178;2022-11-20T05:36:13;8.70;99.90
32400;DHT22;45045;45.440;9.178;2022-11-20T05:38:39;8.70;99.90
32400;DHT22;45045;45.440;9.178;2022-11-20T05:41:15;8.80;99.90
32400;DHT22;45045;45.440;9.178;2022-11-20T05:43:43;8.80;99.90
32400;DHT22;45045;45.440;9.178;2022-11-20T05:46:10;8.80;99.90
32400;DHT22;45045;45.440;9.178;2022-11-20T05:48:37;8.70;99.90
32400;DHT22;45045;45.440;9.178;2022-11-20T05:51:05;8.70;99.90
32400;DHT22;45045;45.440;9.178;2022-11-20T05:53:32;8.70;99.90
32400;DHT22;45045;45.440;9.178;2022-11-20T05:58:28;8.70;99.90
32400;DHT22;45045;45.440;9.178;2022-11-20T06:01:02;8.70;99.90
32400;DHT22;45045;45.440;9.178;2022-11-20T06:03:28;8.60;99.90
32400;DHT22;45045;45.440;9.178;2022-11-20T06:05:55;8.70;99.90
32400;DHT22;45045;45.440;9.178;2022-11-20T06:08:20;8.70;99.90
32400;DHT22;45045;45.440;9.178;2022-11-20T06:10:46;8.70;99.90
32400;DHT22;45045;45.440;9.178;2022-11-20T06:13:11;8.70;99.90
32400;DHT22;45045;45.440;9.178;2022-11-20T06:15:37;8.70;99.90
32400;DHT22;45045;45.440;9.178;2022-11-20T06:18:02;8.70;99.90
32400;DHT22;45045;45.440;9.178;2022-11-20T06:20:28;8.70;99.90
32400;DHT22;45045;45.440;9.178;2022-11-20T06:22:54;8.70;99.90
32400;DHT22;45045;45.440;9.178;2022-11-20T06:25:19;8.70;99.90
32400;DHT22;45045;45.440;9.178;2022-11-20T06:27:45;8.70;99.90
32400;DHT22;45045;45.440;9.178;2022-11-20T06:30:11;8.60;99.90
32400;DHT22;45045;45.440;9.178;2022-11-20T06:32:37;8.70;99.90
32400;DHT22;45045;45.440;9.178;2022-11-20T06:35:03;8.70;99.90
32400;DHT22;45045;45.440;9.178;2022-11-20T06:37:28;8.70;99.90
32400;DHT22;45045;45.440;9.178;2022-11-20T06:39:54;8.70;99.90
32400;DHT22;45045;45.440;9.178;2022-11-20T06:42:19;8.70;99.90
32400;DHT22;45045;45.440;9.178;2022-11-20T06:44:45;8.70;99.90
32400;DHT22;45045;45.440;9.178;2022-11-20T06:47:10;8.70;99.90
32400;DHT22;45045;45.440;9.178;2022-11-20T06:49:36;8.70;99.90
32400;DHT22;45045;45.440;9.178;2022-11-20T06:52:04;8.70;99.90
32400;DHT22;45045;45.440;9.178;2022-11-20T06:54:29;8.70;99.90
32400;DHT22;45045;45.440;9.178;2022-11-20T06:56:55;8.70;99.90
32400;DHT22;45045;45.440;9.178;2022-11-20T06:59:20;8.70;99.90
32400;DHT22;45045;45.440;9.178;2022-11-20T07:01:46;8.70;99.90
32400;DHT22;45045;45.440;9.178;2022-11-20T07:04:12;8.70;99.90
32400;DHT22;45045;45.440;9.178;2022-11-20T07:06:38;8.80;99.90
32400;DHT22;45045;45.440;9.178;2022-11-20T07:09:04;8.70;99.90
32400;DHT22;45045;45.440;9.178;2022-11-20T07:11:29;8.80;99.90
32400;DHT22;45045;45.440;9.178;2022-11-20T07:13:56;8.80;99.90
32400;DHT22;45045;45.440;9.178;2022-11-20T07:16:22;8.90;99.90
32400;DHT22;45045;45.440;9.178;2022-11-20T07:18:48;8.90;99.90
32400;DHT22;45045;45.440;9.178;2022-11-20T07:21:13;9.00;99.90
32400;DHT22;45045;45.440;9.178;2022-11-20T07:23:39;9.10;99.90
32400;DHT22;45045;45.440;9.178;2022-11-20T07:26:05;9.10;99.90
32400;DHT22;45045;45.440;9.178;2022-11-20T07:28:31;9.20;99.90
32400;DHT22;45045;45.440;9.178;2022-11-20T07:30:57;9.30;99.90
32400;DHT22;45045;45.440;9.178;2022-11-20T07:33:23;9.30;99.90
32400;DHT22;45045;45.440;9.178;2022-11-20T07:35:48;9.30;99.90
32400;DHT22;45045;45.440;9.178;2022-11-20T07:38:14;9.60;99.90
32400;DHT22;45045;45.440;9.178;2022-11-20T07:40:40;10.20;99.90
32400;DHT22;45045;45.440;9.178;2022-11-20T07:43:05;10.90;99.90
32400;DHT22;45045;45.440;9.178;2022-11-20T07:45:31;11.50;99.90
32400;DHT22;45045;45.440;9.178;2022-11-20T07:47:57;11.90;99.20
32400;DHT22;45045;45.440;9.178;2022-11-20T07:50:22;12.40;98.40
32400;DHT22;45045;45.440;9.178;2022-11-20T07:52:48;12.70;97.30
32400;DHT22;45045;45.440;9.178;2022-11-20T07:55:14;13.10;96.50
32400;DHT22;45045;45.440;9.178;2022-11-20T07:57:40;13.40;95.70
32400;DHT22;45045;45.440;9.178;2022-11-20T08:00:07;13.60;94.90
32400;DHT22;45045;45.440;9.178;2022-11-20T08:02:40;13.80;94.00
32400;DHT22;45045;45.440;9.178;2022-11-20T08:05:10;14.10;93.60
32400;DHT22;45045;45.440;9.178;2022-11-20T08:07:40;14.30;93.00
32400;DHT22;45045;45.440;9.178;2022-11-20T08:10:08;14.50;92.40
32400;DHT22;45045;45.440;9.178;2022-11-20T08:12:34;14.90;92.00
32400;DHT22;45045;45.440;9.178;2022-11-20T08:15:18;15.50;91.00
32400;DHT22;45045;45.440;9.178;2022-11-20T08:17:44;15.80;89.50
32400;DHT22;45045;45.440;9.178;2022-11-20T08:20:10;15.80;89.00
32400;DHT22;45045;45.440;9.178;2022-11-20T08:22:35;15.80;88.70
32400;DHT22;45045;45.440;9.178;2022-11-20T08:25:01;15.90;87.80
32400;DHT22;45045;45.440;9.178;2022-11-20T08:27:27;16.10;87.60
32400;DHT22;45045;45.440;9.178;2022-11-20T08:29:52;16.40;86.70
32400;DHT22;45045;45.440;9.178;2022-11-20T08:32:18;16.60;87.70
32400;DHT22;45045;45.440;9.178;2022-11-20T08:34:44;17.00;86.80
32400;DHT22;45045;45.440;9.178;2022-11-20T08:37:09;17.30;84.90
32400;DHT22;45045;45.440;9.178;2022-11-20T08:39:35;17.60;83.70
32400;DHT22;45045;45.440;9.178;2022-11-20T08:42:00;17.50;92.70
32400;DHT22;45045;45.440;9.178;2022-11-20T08:44:26;17.40;97.00
32400;DHT22;45045;45.440;9.178;2022-11-20T08:46:54;17.30;98.50
32400;DHT22;45045;45.440;9.178;2022-11-20T08:49:20;17.40;99.10
32400;DHT22;45045;45.440;9.178;2022-11-20T08:51:47;17.40;98.90
32400;DHT22;45045;45.440;9.178;2022-11-20T08:54:16;17.50;98.70
32400;DHT22;45045;45.440;9.178;2022-11-20T08:56:45;17.60;98.30
32400;DHT22;45045;45.440;9.178;2022-11-20T08:59:10;17.70;97.70
32400;DHT22;45045;45.440;9.178;2022-11-20T09:01:36;17.80;97.50
32400;DHT22;45045;45.440;9.178;2022-11-20T09:04:02;17.90;96.50
32400;DHT22;45045;45.440;9.178;2022-11-20T09:06:29;18.00;95.90
32400;DHT22;45045;45.440;9.178;2022-11-20T09:08:55;18.20;93.10
32400;DHT22;45045;45.440;9.178;2022-11-20T09:11:28;18.90;91.80
32400;DHT22;45045;45.440;9.178;2022-11-20T09:13:53;19.10;91.90
32400;DHT22;45045;45.440;9.178;2022-11-20T09:16:19;19.40;89.60
32400;DHT22;45045;45.440;9.178;2022-11-20T09:18:45;19.50;91.10
32400;DHT22;45045;45.440;9.178;2022-11-20T09:21:12;19.60;90.40
32400;DHT22;45045;45.440;9.178;2022-11-20T09:23:39;20.20;87.30
32400;DHT22;45045;45.440;9.178;2022-11-20T09:26:07;20.10;90.00
32400;DHT22;45045;45.440;9.178;2022-11-20T09:28:33;20.70;79.50
32400;DHT22;45045;45.440;9.178;2022-11-20T09:30:59;21.20;79.30
32400;DHT22;45045;45.440;9.178;2022-11-20T09:33:24;21.30;78.30
32400;DHT22;45045;45.440;9.178;2022-11-20T09:35:50;21.20;83.40
32400;DHT22;45045;45.440;9.178;2022-11-20T09:38:16;20.90;86.20
32400;DHT22;45045;45.440;9.178;2022-11-20T09:40:57;21.30;83.90
32400;DHT22;45045;45.440;9.178;2022-11-20T09:49:19;21.90;82.40
32400;DHT22;45045;45.440;9.178;2022-11-20T09:51:57;21.50;85.00
32400;DHT22;45045;45.440;9.178;2022-11-20T09:54:29;21.40;85.20
32400;DHT22;45045;45.440;9.178;2022-11-20T09:57:00;21.20;85.10
32400;DHT22;45045;45.440;9.178;2022-11-20T09:59:48;21.30;84.70
32400;DHT22;45045;45.440;9.178;2022-11-20T10:07:59;22.00;79.20
32400;DHT22;45045;45.440;9.178;2022-11-20T10:10:46;23.00;72.30
32400;DHT22;45045;45.440;9.178;2022-11-20T10:18:57;24.00;71.20
32400;DHT22;45045;45.440;9.178;2022-11-20T10:21:41;23.40;74.20
32400;DHT22;45045;45.440;9.178;2022-11-20T10:28:23;23.00;74.50
32400;DHT22;45045;45.440;9.178;2022-11-20T10:30:29;23.00;73.50
32400;DHT22;45045;45.440;9.178;2022-11-20T10:33:03;23.20;72.40
32400;DHT22;45045;45.440;9.178;2022-11-20T10:35:44;23.30;71.00
32400;DHT22;45045;45.440;9.178;2022-11-20T10:38:43;23.40;71.40
32400;DHT22;45045;45.440;9.178;2022-11-20T10:41:20;24.00;66.90
32400;DHT22;45045;45.440;9.178;2022-11-20T10:44:26;24.20;67.30
32400;DHT22;45045;45.440;9.178;2022-11-20T10:47:14;24.70;63.30
32400;DHT22;45045;45.440;9.178;2022-11-20T10:49:42;25.60;58.90
32400;DHT22;45045;45.440;9.178;2022-11-20T10:52:24;25.60;60.00
32400;DHT22;45045;45.440;9.178;2022-11-20T10:55:10;25.60;61.10
32400;DHT22;45045;45.440;9.178;2022-11-20T10:58:00;25.50;60.70
32400;DHT22;45045;45.440;9.178;2022-11-20T11:00:30;25.70;58.40
32400;DHT22;45045;45.440;9.178;2022-11-20T11:02:55;25.40;60.30
32400;DHT22;45045;45.440;9.178;2022-11-20T11:05:40;25.50;59.10
32400;DHT22;45045;45.440;9.178;2022-11-20T11:08:15;25.50;59.20
32400;DHT22;45045;45.440;9.178;2022-11-20T11:10:49;26.00;57.30
32400;DHT22;45045;45.440;9.178;2022-11-20T11:13:24;25.60;58.00
32400;DHT22;45045;45.440;9.178;2022-11-20T11:15:51;26.40;56.90
32400;DHT22;45045;45.440;9.178;2022-11-20T11:18:31;26.60;55.50
32400;DHT22;45045;45.440;9.178;2022-11-20T11:20:59;26.70;54.70
32400;DHT22;45045;45.440;9.178;2022-11-20T11:23:36;26.90;54.90
32400;DHT22;45045;45.440;9.178;2022-11-20T11:26:06;26.80;54.30
32400;DHT22;45045;45.440;9.178;2022-11-20T11:28:32;26.90;54.30
32400;DHT22;45045;45.440;9.178;2022-11-20T11:30:58;26.90;54.50
32400;DHT22;45045;45.440;9.178;2022-11-20T11:33:24;26.50;55.00
32400;DHT22;45045;45.440;9.178;2022-11-20T11:36:00;26.60;55.00
32400;DHT22;45045;45.440;9.178;2022-11-20T11:38:43;27.20;51.90
32400;DHT22;45045;45.440;9.178;2022-11-20T11:41:15;27.10;53.10
32400;DHT22;45045;45.440;9.178;2022-11-20T11:43:53;27.00;52.30
32400;DHT22;45045;45.440;9.178;2022-11-20T11:46:39;27.00;51.90
32400;DHT22;45045;45.440;9.178;2022-11-20T11:49:15;27.00;51.70
32400;DHT22;45045;45.440;9.178;2022-11-20T11:51:46;26.90;51.50
32400;DHT22;45045;45.440;9.178;2022-11-20T11:54:21;26.70;52.20
32400;DHT22;45045;45.440;9.178;2022-11-20T11:56:49;26.50;52.80
32400;DHT22;45045;45.440;9.178;2022-11-20T11:59:30;26.40;52.00
32400;DHT22;45045;45.440;9.178;2022-11-20T12:05:03;26.50;54.30
32400;DHT22;45045;45.440;9.178;2022-11-20T12:07:45;26.50;55.00
32400;DHT22;45045;45.440;9.178;2022-11-20T12:10:22;26.60;56.10
32400;DHT22;45045;45.440;9.178;2022-11-20T12:12:53;26.30;57.40
32400;DHT22;45045;45.440;9.178;2022-11-20T12:15:28;26.30;54.30
32400;DHT22;45045;45.440;9.178;2022-11-20T12:17:54;26.40;53.30
32400;DHT22;45045;45.440;9.178;2022-11-20T12:20:24;26.30;56.30
32400;DHT22;45045;45.440;9.178;2022-11-20T12:23:27;26.20;55.60
32400;DHT22;45045;45.440;9.178;2022-11-20T12:25:43;26.00;49.50
32400;DHT22;45045;45.440;9.178;2022-11-20T12:33:49;25.70;58.30
32400;DHT22;45045;45.440;9.178;2022-11-20T12:36:37;25.70;58.80
32400;DHT22;45045;45.440;9.178;2022-11-20T12:39:17;25.70;58.10
32400;DHT22;45045;45.440;9.178;2022-11-20T12:48:00;25.50;58.70
32400;DHT22;45045;45.440;9.178;2022-11-20T13:03:12;24.90;58.00
32400;DHT22;45045;45.440;9.178;2022-11-20T13:08:24;24.80;60.10
32400;DHT22;45045;45.440;9.178;2022-11-20T13:11:18;24.60;61.30
32400;DHT22;45045;45.440;9.178;2022-11-20T13:16:38;24.30;61.20
32400;DHT22;45045;45.440;9.178;2022-11-20T13:19:16;24.40;58.30
32400;DHT22;45045;45.440;9.178;2022-11-20T13:21:44;24.50;60.50
32400;DHT22;45045;45.440;9.178;2022-11-20T13:26:59;24.20;62.80
32400;DHT22;45045;45.440;9.178;2022-11-20T13:29:25;24.10;63.30
32400;DHT22;45045;45.440;9.178;2022-11-20T13:32:00;24.10;63.30
32400;DHT22;45045;45.440;9.178;2022-11-20T13:34:27;24.10;62.60
32400;DHT22;45045;45.440;9.178;2022-11-20T13:36:55;24.10;63.40
32400;DHT22;45045;45.440;9.178;2022-11-20T13:39:29;24.20;63.00
32400;DHT22;45045;45.440;9.178;2022-11-20T13:42:03;24.10;62.20
32400;DHT22;45045;45.440;9.178;2022-11-20T13:44:51;24.10;57.90
32400;DHT22;45045;45.440;9.178;2022-11-20T13:47:21;24.10;59.10
32400;DHT22;45045;45.440;9.178;2022-11-20T13:49:47;24.00;59.40
32400;DHT22;45045;45.440;9.178;2022-11-20T13:52:39;24.00;59.00
32400;DHT22;45045;45.440;9.178;2022-11-20T14:01:16;22.60;53.00
32400;DHT22;45045;45.440;9.178;2022-11-20T14:03:43;22.60;52.00
32400;DHT22;45045;45.440;9.178;2022-11-20T14:06:26;22.70;59.00
32400;DHT22;45045;45.440;9.178;2022-11-20T14:08:54;22.50;63.20
32400;DHT22;45045;45.440;9.178;2022-11-20T14:11:31;22.60;54.90
32400;DHT22;45045;45.440;9.178;2022-11-20T14:14:18;22.50;59.60
32400;DHT22;45045;45.440;9.178;2022-11-20T14:16:45;22.50;67.70
32400;DHT22;45045;45.440;9.178;2022-11-20T14:19:37;22.40;69.60
32400;DHT22;45045;45.440;9.178;2022-11-20T14:22:26;22.20;55.60
32400;DHT22;45045;45.440;9.178;2022-11-20T14:25:23;22.10;66.30
32400;DHT22;45045;45.440;9.178;2022-11-20T14:27:54;22.10;55.40
32400;DHT22;45045;45.440;9.178;2022-11-20T14:30:28;21.90;65.60
32400;DHT22;45045;45.440;9.178;2022-11-20T14:33:11;22.00;70.10
32400;DHT22;45045;45.440;9.178;2022-11-20T14:35:50;22.10;69.10
32400;DHT22;45045;45.440;9.178;2022-11-20T14:38:27;22.10;55.10
32400;DHT22;45045;45.440;9.178;2022-11-20T14:40:54;21.50;58.60
32400;DHT22;45045;45.440;9.178;2022-11-20T14:43:26;21.10;54.60
32400;DHT22;45045;45.440;9.178;2022-11-20T14:46:03;21.30;59.10
32400;DHT22;45045;45.440;9.178;2022-11-20T14:48:44;21.20;57.50
32400;DHT22;45045;45.440;9.178;2022-11-20T14:51:38;21.20;56.60
32400;DHT22;45045;45.440;9.178;2022-11-20T14:54:20;21.00;54.60
32400;DHT22;45045;45.440;9.178;2022-11-20T14:57:18;21.00;54.50
32400;DHT22;45045;45.440;9.178;2022-11-20T14:59:49;21.00;56.50
32400;DHT22;45045;45.440;9.178;2022-11-20T15:02:16;20.80;57.00
32400;DHT22;45045;45.440;9.178;2022-11-20T15:04:51;20.50;56.30
32400;DHT22;45045;45.440;9.178;2022-11-20T15:07:26;20.60;54.50
32400;DHT22;45045;45.440;9.178;2022-11-20T15:10:10;20.50;53.60
32400;DHT22;45045;45.440;9.178;2022-11-20T15:12:47;20.20;53.60
32400;DHT22;45045;45.440;9.178;2022-11-20T15:15:19;20.30;56.20
32400;DHT22;45045;45.440;9.178;2022-11-20T15:17:45;20.50;57.20
32400;DHT22;45045;45.440;9.178;2022-11-20T15:20:16;20.40;54.50
32400;DHT22;45045;45.440;9.178;2022-11-20T15:22:42;20.20;56.70
32400;DHT22;45045;45.440;9.178;2022-11-20T15:25:15;20.40;57.00
32400;DHT22;45045;45.440;9.178;2022-11-20T15:27:42;20.70;57.10
32400;DHT22;45045;45.440;9.178;2022-11-20T15:30:17;20.60;55.70
32400;DHT22;45045;45.440;9.178;2022-11-20T15:32:43;20.60;60.50
32400;DHT22;45045;45.440;9.178;2022-11-20T15:35:10;20.70;57.30
32400;DHT22;45045;45.440;9.178;2022-11-20T15:37:36;20.70;72.30
32400;DHT22;45045;45.440;9.178;2022-11-20T15:40:03;20.70;75.30
32400;DHT22;45045;45.440;9.178;2022-11-20T15:42:29;20.70;76.70
32400;DHT22;45045;45.440;9.178;2022-11-20T15:44:54;20.70;76.90
32400;DHT22;45045;45.440;9.178;2022-11-20T15:47:25;20.70;77.40
32400;DHT22;45045;45.440;9.178;2022-11-20T15:49:52;20.70;77.40
32400;DHT22;45045;45.440;9.178;2022-11-20T15:52:18;20.70;74.70
32400;DHT22;45045;45.440;9.178;2022-11-20T15:54:44;20.80;75.60
32400;DHT22;45045;45.440;9.178;2022-11-20T15:57:09;20.70;68.30
32400;DHT22;45045;45.440;9.178;2022-11-20T15:59:35;20.70;72.30
32400;DHT22;45045;45.440;9.178;2022-11-20T16:02:09;20.70;74.40
32400;DHT22;45045;45.440;9.178;2022-11-20T16:04:35;20.60;74.50
32400;DHT22;45045;45.440;9.178;2022-11-20T16:07:01;20.60;74.50
32400;DHT22;45045;45.440;9.178;2022-11-20T16:09:26;20.60;68.80
32400;DHT22;45045;45.440;9.178;2022-11-20T16:11:52;20.50;74.00
32400;DHT22;45045;45.440;9.178;2022-11-20T16:14:18;20.50;69.20
32400;DHT22;45045;45.440;9.178;2022-11-20T16:17:03;20.40;75.50
32400;DHT22;45045;45.440;9.178;2022-11-20T16:19:28;20.40;76.30
32400;DHT22;45045;45.440;9.178;2022-11-20T16:21:54;20.40;76.00
32400;DHT22;45045;45.440;9.178;2022-11-20T16:24:19;20.40;76.20
32400;DHT22;45045;45.440;9.178;2022-11-20T16:26:45;20.40;76.00
32400;DHT22;45045;45.440;9.178;2022-11-20T16:29:11;20.40;76.90
32400;DHT22;45045;45.440;9.178;2022-11-20T16:31:37;20.30;75.30
32400;DHT22;45045;45.440;9.178;2022-11-20T16:34:05;20.30;76.40
32400;DHT22;45045;45.440;9.178;2022-11-20T16:36:31;19.80;63.70
32400;DHT22;45045;45.440;9.178;2022-11-20T16:39:00;18.60;65.10
32400;DHT22;45045;45.440;9.178;2022-11-20T16:41:28;17.80;68.30
32400;DHT22;45045;45.440;9.178;2022-11-20T16:43:56;17.30;69.60
32400;DHT22;45045;45.440;9.178;2022-11-20T16:46:28;16.80;71.30
32400;DHT22;45045;45.440;9.178;2022-11-20T16:48:57;16.60;73.10
32400;DHT22;45045;45.440;9.178;2022-11-20T16:51:24;16.40;73.70
32400;DHT22;45045;45.440;9.178;2022-11-20T16:53:50;16.30;74.70
32400;DHT22;45045;45.440;9.178;2022-11-20T16:56:17;16.10;75.50
32400;DHT22;45045;45.440;9.178;2022-11-20T16:58:44;16.00;74.90
32400;DHT22;45045;45.440;9.178;2022-11-20T17:01:13;15.90;76.80
32400;DHT22;45045;45.440;9.178;2022-11-20T17:03:40;15.80;77.50